Miniplon — FIDV — position and weather

sailwx.info

Track history (hours):
 
Tides and Currents Weather Stations Pressure Air Temp Water Temp Dewpoint Dewpoint Depression Visibility Wind Speed Wind Dir Waves Ship Positions

Miniplon

Last reported at 2015-Aug-27 17:33 UTC. Time now 2015-Aug-29 14:47 UTC.
Position N 46°30' W 001°47'.

Length 22 m.

Type: SAR. MMSI: 228024600.

Date/timePositionNaut miles runAvg speedWind from/ knotsBaromVisibWave heightAir tempDewpointWater temp
2015-Aug-27 17:33N 46°30' W 001°47'1010.2
2015-Aug-27 16:33N 46°23' W 001°36'0 0.0
2015-Aug-27 12:31N 46°23' W 001°37'9 9.7
2015-Aug-27 11:33N 46°29' W 001°47'  
2015-Aug-22 14:29N 46°30' W 001°47'5 5.0
2015-Aug-22 13:33N 46°31' W 001°54'20 3.7
2015-Aug-22 08:15N 46°46' W 002°12'6 0.5
2015-Aug-21 19:25N 46°44' W 002°21'1111.4
2015-Aug-21 18:28N 46°53' W 002°31'1010.9
2015-Aug-21 17:33N 47°01' W 002°39'1110.9
2015-Aug-21 16:33N 47°10' W 002°48'1111.0
2015-Aug-21 15:33N 47°19' W 002°58'1110.6
2015-Aug-21 14:33N 47°27' W 003°07'5 5.1
2015-Aug-21 13:33N 47°28' W 003°14'7 6.4
2015-Aug-21 12:32N 47°28' W 003°24'2 2.4
2015-Aug-21 11:33N 47°30' W 003°25'3 2.7
2015-Aug-21 10:33N 47°33' W 003°25'9 9.5
2015-Aug-21 09:33N 47°29' W 003°12'6 5.9
2015-Aug-21 08:33N 47°25' W 003°05'10 9.9
2015-Aug-21 07:33N 47°17' W 002°56'10 9.9
2015-Aug-21 06:33N 47°09' W 002°47'1010.0
2015-Aug-21 05:33N 47°01' W 002°39'1010.2
2015-Aug-21 04:32N 46°53' W 002°30'10 9.9
2015-Aug-21 03:33N 46°45' W 002°21'1 0.2
2015-Aug-20 18:26N 46°44' W 002°21'0 0.0
2015-Aug-20 03:26N 46°44' W 002°21'0 0.0
2015-Aug-20 01:26N 46°44' W 002°21'0 0.0
2015-Aug-20 00:15N 46°44' W 002°21'18 0.9
2015-Aug-19 03:32N 47°02' W 002°18'0 0.1
2015-Aug-18 23:28N 47°01' W 002°18'0 0.2
2015-Aug-18 21:30N 47°02' W 002°18'0 0.0
2015-Aug-18 20:28N 47°02' W 002°18'0 0.0
2015-Aug-18 19:25N 47°02' W 002°18'3 0.2
2015-Aug-18 05:30N 47°00' W 002°22'17 1.7
2015-Aug-17 19:31N 46°44' W 002°21'  
Track history (hours):
 
Tides and Currents Weather Stations Pressure Air Temp Water Temp Dewpoint Dewpoint Depression Visibility Wind Speed Wind Dir Waves Ship Positions

Miniplon

Last reported at 2015-Aug-27 17:33 UTC. Time now 2015-Aug-29 14:47 UTC.
Position N 46°30' W 001°47'.

Length 22 m.

Type: SAR. MMSI: 228024600.

Date/timePositionNaut miles runAvg speedWind from/ knotsBaromVisibWave heightAir tempDewpointWater temp
2015-Aug-27 17:33N 46°30' W 001°47'1010.2
2015-Aug-27 16:33N 46°23' W 001°36'0 0.0
2015-Aug-27 12:31N 46°23' W 001°37'9 9.7
2015-Aug-27 11:33N 46°29' W 001°47'  
2015-Aug-22 14:29N 46°30' W 001°47'5 5.0
2015-Aug-22 13:33N 46°31' W 001°54'20 3.7
2015-Aug-22 08:15N 46°46' W 002°12'6 0.5
2015-Aug-21 19:25N 46°44' W 002°21'1111.4
2015-Aug-21 18:28N 46°53' W 002°31'1010.9
2015-Aug-21 17:33N 47°01' W 002°39'1110.9
2015-Aug-21 16:33N 47°10' W 002°48'1111.0
2015-Aug-21 15:33N 47°19' W 002°58'1110.6
2015-Aug-21 14:33N 47°27' W 003°07'5 5.1
2015-Aug-21 13:33N 47°28' W 003°14'7 6.4
2015-Aug-21 12:32N 47°28' W 003°24'2 2.4
2015-Aug-21 11:33N 47°30' W 003°25'3 2.7
2015-Aug-21 10:33N 47°33' W 003°25'9 9.5
2015-Aug-21 09:33N 47°29' W 003°12'6 5.9
2015-Aug-21 08:33N 47°25' W 003°05'10 9.9
2015-Aug-21 07:33N 47°17' W 002°56'10 9.9
2015-Aug-21 06:33N 47°09' W 002°47'1010.0
2015-Aug-21 05:33N 47°01' W 002°39'1010.2
2015-Aug-21 04:32N 46°53' W 002°30'10 9.9
2015-Aug-21 03:33N 46°45' W 002°21'1 0.2
2015-Aug-20 18:26N 46°44' W 002°21'0 0.0
2015-Aug-20 03:26N 46°44' W 002°21'0 0.0
2015-Aug-20 01:26N 46°44' W 002°21'0 0.0
2015-Aug-20 00:15N 46°44' W 002°21'18 0.9
2015-Aug-19 03:32N 47°02' W 002°18'0 0.1
2015-Aug-18 23:28N 47°01' W 002°18'0 0.2
2015-Aug-18 21:30N 47°02' W 002°18'0 0.0
2015-Aug-18 20:28N 47°02' W 002°18'0 0.0
2015-Aug-18 19:25N 47°02' W 002°18'3 0.2
2015-Aug-18 05:30N 47°00' W 002°22'17 1.7
2015-Aug-17 19:31N 46°44' W 002°21'  

Dump ship's entire track history